Time;durP1;ratioP1;P1;durP2;ratioP2;P2;SDS_P1;SDS_P2;PMS_P1;PMS_P2;Temp;Humidity;BMP_temperature;BMP_pressure;BME280_temperature;BME280_humidity;BME280_pressure;Samples;Min_cycle;Max_cycle;Signal;HPM_P1;HPM_P2
2024/03/25 00:01:06;;;;;;;20.83;3.43;;;;;;;;;;5050717;28;20681;-73
2024/03/25 00:03:31;;;;;;;20.50;3.70;;;;;;;;;;5054218;28;20196;-73
2024/03/25 00:05:57;;;;;;;23.27;4.73;;;;;;;;;;5055877;28;20276;-73
2024/03/25 00:08:22;;;;;;;26.10;3.20;;;;;;;;;;5060531;28;20242;-73
2024/03/25 00:10:48;;;;;;;21.93;3.73;;;;;;;;;;5058904;28;20213;-73
2024/03/25 00:13:14;;;;;;;22.97;3.30;;;;;;;;;;5047448;28;20178;-73
2024/03/25 00:15:39;;;;;;;20.93;3.20;;;;;;;;;;5048991;28;20274;-74
2024/03/25 00:18:05;;;;;;;20.93;3.33;;;;;;;;;;5052350;28;20390;-73
2024/03/25 00:20:30;;;;;;;29.77;4.17;;;;;;;;;;5078182;28;20304;-72
2024/03/25 00:22:56;;;;;;;22.17;4.83;;;;;;;;;;5057155;28;20209;-72
2024/03/25 00:25:21;;;;;;;17.60;3.53;;;;;;;;;;5052317;28;20280;-72
2024/03/25 00:27:47;;;;;;;15.60;3.37;;;;;;;;;;5057513;28;20185;-72
2024/03/25 00:30:13;;;;;;;14.60;2.93;;;;;;;;;;5060785;28;20322;-72
2024/03/25 00:32:39;;;;;;;23.77;3.40;;;;;;;;;;5050695;28;20194;-73
2024/03/25 00:35:04;;;;;;;23.03;3.60;;;;;;;;;;5049276;28;20682;-72
2024/03/25 00:37:30;;;;;;;20.93;4.30;;;;;;;;;;5058315;28;20224;-72
2024/03/25 00:39:55;;;;;;;18.13;3.40;;;;;;;;;;5061835;28;20506;-72
2024/03/25 00:42:21;;;;;;;27.33;3.07;;;;;;;;;;5063085;28;20235;-72
2024/03/25 00:44:46;;;;;;;16.03;2.77;;;;;;;;;;5059142;28;20197;-72
2024/03/25 00:47:12;;;;;;;25.37;2.50;;;;;;;;;;5059542;28;20326;-72
2024/03/25 00:49:38;;;;;;;24.37;3.23;;;;;;;;;;5057222;28;20220;-72
2024/03/25 00:52:04;;;;;;;21.30;3.23;;;;;;;;;;5058112;28;20536;-72
2024/03/25 00:54:29;;;;;;;28.63;3.90;;;;;;;;;;5038212;28;20260;-73
2024/03/25 00:56:55;;;;;;;20.67;3.13;;;;;;;;;;5060418;28;20185;-72
2024/03/25 00:59:20;;;;;;;27.33;3.90;;;;;;;;;;5050022;28;20204;-72
2024/03/25 01:01:46;;;;;;;18.47;2.87;;;;;;;;;;5055906;28;20331;-72
2024/03/25 01:04:11;;;;;;;23.47;3.53;;;;;;;;;;5052696;28;20185;-72
2024/03/25 01:06:37;;;;;;;18.43;2.73;;;;;;;;;;5054546;28;20489;-72
2024/03/25 01:09:04;;;;;;;17.07;3.33;;;;;;;;;;5056740;28;20196;-72
2024/03/25 01:11:30;;;;;;;26.27;3.50;;;;;;;;;;5056392;28;20184;-72
2024/03/25 01:13:56;;;;;;;20.40;2.80;;;;;;;;;;5043496;28;20326;-72
2024/03/25 01:16:21;;;;;;;20.77;2.70;;;;;;;;;;5051729;28;20281;-72
2024/03/25 01:18:47;;;;;;;26.37;3.30;;;;;;;;;;5052652;28;20215;-72
2024/03/25 01:21:12;;;;;;;27.93;3.63;;;;;;;;;;5058660;28;20526;-72
2024/03/25 01:23:38;;;;;;;26.37;3.30;;;;;;;;;;5064305;28;20189;-72
2024/03/25 01:26:03;;;;;;;21.20;2.70;;;;;;;;;;5058661;28;20568;-72
2024/03/25 01:28:29;;;;;;;27.30;3.40;;;;;;;;;;5053397;28;20249;-72
2024/03/25 01:30:54;;;;;;;22.53;3.27;;;;;;;;;;5049209;28;20717;-72
2024/03/25 01:33:20;;;;;;;27.93;4.93;;;;;;;;;;5053350;28;20189;-72
2024/03/25 01:35:45;;;;;;;24.37;2.90;;;;;;;;;;5051855;28;20686;-72
2024/03/25 01:38:11;;;;;;;22.23;3.73;;;;;;;;;;5053856;28;20192;-71
2024/03/25 01:40:36;;;;;;;26.30;3.27;;;;;;;;;;5055519;28;20188;-72
2024/03/25 01:43:03;;;;;;;16.93;2.93;;;;;;;;;;5054642;28;20212;-73
2024/03/25 01:45:30;;;;;;;15.83;2.97;;;;;;;;;;5051925;28;20202;-73
2024/03/25 01:47:57;;;;;;;24.67;3.07;;;;;;;;;;5057442;28;20188;-72
2024/03/25 01:50:23;;;;;;;25.90;3.70;;;;;;;;;;5053580;28;20196;-72
2024/03/25 01:52:49;;;;;;;25.50;3.40;;;;;;;;;;5053913;28;20181;-73
2024/03/25 01:55:25;;;;;;;31.53;4.67;;;;;;;;;;5056061;28;20222;-72
2024/03/25 01:57:51;;;;;;;19.07;2.80;;;;;;;;;;5052299;28;20204;-72
2024/03/25 02:00:18;;;;;;;22.50;3.27;;;;;;;;;;5057195;28;20193;-73
2024/03/25 02:02:46;;;;;;;22.97;2.93;;;;;;;;;;5052376;28;20292;-72
2024/03/25 02:05:16;;;;;;;18.57;2.47;;;;;;;;;;5051257;28;20279;-73
2024/03/25 02:07:43;;;;;;;16.40;2.70;;;;;;;;;;5028436;28;21305;-72
2024/03/25 02:10:15;;;;;;;24.60;2.60;;;;;;;;;;5050844;28;20686;-72
2024/03/25 02:12:42;;;;;;;18.80;2.67;;;;;;;;;;5056576;28;20203;-72
2024/03/25 02:15:09;;;;;;;18.30;2.37;;;;;;;;;;5055747;28;20264;-72
2024/03/25 02:17:35;;;;;;;19.23;2.90;;;;;;;;;;5055829;28;20272;-73
2024/03/25 02:20:02;;;;;;;20.27;2.90;;;;;;;;;;5052097;28;20323;-74
2024/03/25 02:22:29;;;;;;;25.20;2.83;;;;;;;;;;5048751;28;20232;-72
2024/03/25 02:24:57;;;;;;;13.13;2.60;;;;;;;;;;5056069;28;20200;-72
2024/03/25 02:27:23;;;;;;;12.63;2.33;;;;;;;;;;5050768;28;20197;-72
2024/03/25 02:29:48;;;;;;;23.80;3.33;;;;;;;;;;5056241;28;20185;-72
2024/03/25 02:32:14;;;;;;;17.77;2.80;;;;;;;;;;5053609;28;20701;-72
2024/03/25 02:34:44;;;;;;;17.80;3.30;;;;;;;;;;5057071;28;20189;-72
2024/03/25 02:37:09;;;;;;;19.37;3.77;;;;;;;;;;5054929;28;20251;-72
2024/03/25 02:39:35;;;;;;;20.63;2.63;;;;;;;;;;5056307;28;20185;-72
2024/03/25 02:42:01;;;;;;;24.13;3.20;;;;;;;;;;5061381;28;20213;-72
2024/03/25 02:44:26;;;;;;;23.40;3.37;;;;;;;;;;5057492;28;20721;-73
2024/03/25 02:46:52;;;;;;;20.43;3.33;;;;;;;;;;5056029;28;20187;-73
2024/03/25 02:49:18;;;;;;;23.93;3.00;;;;;;;;;;5054310;28;20201;-73
2024/03/25 02:51:43;;;;;;;17.67;3.00;;;;;;;;;;5055286;28;20687;-73
2024/03/25 02:54:09;;;;;;;27.63;4.10;;;;;;;;;;5055633;28;20288;-73
2024/03/25 02:56:35;;;;;;;22.57;3.37;;;;;;;;;;5056836;28;20201;-73
2024/03/25 02:59:01;;;;;;;18.70;3.03;;;;;;;;;;5058528;28;20283;-73
2024/03/25 03:01:26;;;;;;;26.37;3.67;;;;;;;;;;5057222;28;20292;-73
2024/03/25 03:03:52;;;;;;;29.37;3.57;;;;;;;;;;5051633;28;20298;-73
2024/03/25 03:06:18;;;;;;;29.83;4.20;;;;;;;;;;5051094;28;20822;-72
2024/03/25 03:08:44;;;;;;;25.97;3.70;;;;;;;;;;5055582;28;20197;-73
2024/03/25 03:11:09;;;;;;;20.83;3.53;;;;;;;;;;5059691;28;20518;-72
2024/03/25 03:13:35;;;;;;;24.23;3.23;;;;;;;;;;5057270;28;20260;-73
2024/03/25 03:16:00;;;;;;;33.97;4.00;;;;;;;;;;5054996;28;20555;-72
2024/03/25 03:18:27;;;;;;;25.17;4.10;;;;;;;;;;5052454;28;20202;-72
2024/03/25 03:20:55;;;;;;;25.93;3.40;;;;;;;;;;5059190;28;20718;-72
2024/03/25 03:23:21;;;;;;;32.87;4.10;;;;;;;;;;5052933;28;20249;-72
2024/03/25 03:25:46;;;;;;;22.17;3.67;;;;;;;;;;5055141;28;20279;-72
2024/03/25 03:28:11;;;;;;;21.07;4.20;;;;;;;;;;5056685;28;20205;-73
2024/03/25 03:30:37;;;;;;;26.90;3.20;;;;;;;;;;5060887;28;20478;-73
2024/03/25 03:33:03;;;;;;;24.27;3.57;;;;;;;;;;5061208;28;20176;-73
2024/03/25 03:35:28;;;;;;;34.20;3.80;;;;;;;;;;5058470;28;20267;-73
2024/03/25 03:37:53;;;;;;;27.63;3.87;;;;;;;;;;5051615;28;20315;-73
2024/03/25 03:40:19;;;;;;;29.83;3.73;;;;;;;;;;5060326;28;20277;-72
2024/03/25 03:42:44;;;;;;;19.40;3.10;;;;;;;;;;5054100;28;20692;-73
2024/03/25 03:45:10;;;;;;;26.63;4.27;;;;;;;;;;5054800;28;20192;-72
2024/03/25 03:47:35;;;;;;;21.37;3.67;;;;;;;;;;5055054;28;20240;-72
2024/03/25 03:50:01;;;;;;;37.23;4.93;;;;;;;;;;5054114;28;20276;-72
2024/03/25 03:52:26;;;;;;;32.93;4.03;;;;;;;;;;5054996;28;20184;-72
2024/03/25 03:54:52;;;;;;;25.10;3.80;;;;;;;;;;5061590;28;20685;-72
2024/03/25 03:57:17;;;;;;;26.27;4.70;;;;;;;;;;5053955;28;20190;-72
2024/03/25 03:59:43;;;;;;;25.10;4.63;;;;;;;;;;5057035;28;20214;-72
2024/03/25 04:02:09;;;;;;;20.33;3.50;;;;;;;;;;5060994;28;20251;-72
2024/03/25 04:04:34;;;;;;;30.40;3.90;;;;;;;;;;5059715;28;20181;-72
2024/03/25 04:07:02;;;;;;;26.97;5.03;;;;;;;;;;5057303;28;20272;-72
2024/03/25 04:09:29;;;;;;;24.30;4.00;;;;;;;;;;5058690;28;20193;-72
2024/03/25 04:11:55;;;;;;;28.07;4.83;;;;;;;;;;5055036;28;20197;-72
2024/03/25 04:14:20;;;;;;;22.47;4.33;;;;;;;;;;5055312;28;20555;-72
2024/03/25 04:16:47;;;;;;;26.97;4.23;;;;;;;;;;5055072;28;20200;-72
2024/03/25 04:19:13;;;;;;;21.70;3.77;;;;;;;;;;5055405;28;20482;-72
2024/03/25 04:21:39;;;;;;;25.77;4.07;;;;;;;;;;5054100;28;20703;-74
2024/03/25 04:24:05;;;;;;;24.40;3.77;;;;;;;;;;5055479;28;20192;-74
2024/03/25 04:26:30;;;;;;;29.27;4.07;;;;;;;;;;5055641;28;20181;-74
2024/03/25 04:28:55;;;;;;;21.33;4.40;;;;;;;;;;5052202;28;20199;-74
2024/03/25 04:31:21;;;;;;;21.70;4.03;;;;;;;;;;5056272;28;20181;-74
2024/03/25 04:33:46;;;;;;;57.47;5.30;;;;;;;;;;5036885;28;20181;-74
2024/03/25 04:36:12;;;;;;;20.93;4.33;;;;;;;;;;5047242;28;20232;-74
2024/03/25 04:38:38;;;;;;;24.47;4.80;;;;;;;;;;5061219;28;20193;-74
2024/03/25 04:41:04;;;;;;;23.27;4.60;;;;;;;;;;5049986;28;20204;-74
2024/03/25 04:43:29;;;;;;;22.93;4.17;;;;;;;;;;5061148;28;20188;-74
2024/03/25 04:46:00;;;;;;;22.63;4.67;;;;;;;;;;5035008;28;20204;-74
2024/03/25 04:48:25;;;;;;;22.60;4.53;;;;;;;;;;5048817;28;20501;-74
2024/03/25 04:50:51;;;;;;;26.27;4.57;;;;;;;;;;5055196;28;20270;-74
2024/03/25 04:53:16;;;;;;;24.77;3.83;;;;;;;;;;5057665;28;20276;-74
2024/03/25 04:55:41;;;;;;;30.00;4.83;;;;;;;;;;5052752;28;20196;-74
2024/03/25 04:58:07;;;;;;;26.93;4.73;;;;;;;;;;5055123;28;20296;-73
2024/03/25 05:00:32;;;;;;;27.87;4.73;;;;;;;;;;5045195;28;20196;-74
2024/03/25 05:02:58;;;;;;;24.63;4.43;;;;;;;;;;5053197;28;20235;-73
2024/03/25 05:05:24;;;;;;;23.33;5.00;;;;;;;;;;5042743;28;20223;-73
2024/03/25 05:07:49;;;;;;;30.80;5.40;;;;;;;;;;5058778;28;20338;-73
2024/03/25 05:10:15;;;;;;;17.40;3.67;;;;;;;;;;5056404;28;20502;-73
2024/03/25 05:12:40;;;;;;;20.97;4.83;;;;;;;;;;5052519;28;20958;-74
2024/03/25 05:15:06;;;;;;;24.13;5.60;;;;;;;;;;5054264;28;20225;-72
2024/03/25 05:17:31;;;;;;;25.53;4.87;;;;;;;;;;5051082;28;20685;-74
2024/03/25 05:19:56;;;;;;;29.20;4.97;;;;;;;;;;5056627;28;20213;-73
2024/03/25 05:22:22;;;;;;;27.10;4.67;;;;;;;;;;5054465;28;20573;-72
2024/03/25 05:24:47;;;;;;;17.43;4.23;;;;;;;;;;5051478;28;20201;-73
2024/03/25 05:27:13;;;;;;;26.13;4.37;;;;;;;;;;5053502;28;20268;-73
2024/03/25 05:29:38;;;;;;;23.77;4.80;;;;;;;;;;5050372;28;20177;-73
2024/03/25 05:32:04;;;;;;;21.70;4.73;;;;;;;;;;5046642;28;20193;-73
2024/03/25 05:34:31;;;;;;;27.00;4.87;;;;;;;;;;5061070;28;20181;-73
2024/03/25 05:36:57;;;;;;;33.50;5.27;;;;;;;;;;5052861;28;20232;-73
2024/03/25 05:39:22;;;;;;;28.80;4.77;;;;;;;;;;5052273;28;20184;-73
2024/03/25 05:41:48;;;;;;;25.47;4.87;;;;;;;;;;5052448;28;20901;-73
2024/03/25 05:44:14;;;;;;;27.40;5.30;;;;;;;;;;5052616;28;20245;-72
2024/03/25 05:46:39;;;;;;;26.83;5.07;;;;;;;;;;5048609;28;20608;-72
2024/03/25 05:49:05;;;;;;;23.10;4.30;;;;;;;;;;5043258;28;20177;-72
2024/03/25 05:51:33;;;;;;;28.57;4.77;;;;;;;;;;5051887;28;20181;-72
2024/03/25 05:53:59;;;;;;;21.33;5.70;;;;;;;;;;5042285;28;20649;-72
2024/03/25 05:56:30;;;;;;;27.83;4.37;;;;;;;;;;5051487;28;20197;-72
2024/03/25 05:58:58;;;;;;;30.60;5.13;;;;;;;;;;5052715;28;20682;-73
2024/03/25 06:01:24;;;;;;;23.20;4.23;;;;;;;;;;5056245;28;20257;-72
2024/03/25 06:03:49;;;;;;;24.03;4.43;;;;;;;;;;5046602;28;20259;-73
2024/03/25 06:06:15;;;;;;;25.73;4.13;;;;;;;;;;5051465;28;20200;-73
2024/03/25 06:08:40;;;;;;;24.53;4.40;;;;;;;;;;5058085;28;20197;-73
2024/03/25 06:11:06;;;;;;;25.47;4.97;;;;;;;;;;5053968;28;20216;-73
2024/03/25 06:13:32;;;;;;;27.83;6.67;;;;;;;;;;5059242;28;20528;-73
2024/03/25 06:15:58;;;;;;;25.23;4.90;;;;;;;;;;5056541;28;20184;-73
2024/03/25 06:18:23;;;;;;;19.17;4.30;;;;;;;;;;5054492;28;20216;-73
2024/03/25 06:20:49;;;;;;;28.57;4.43;;;;;;;;;;5056926;28;20211;-73
2024/03/25 06:23:28;;;;;;;27.40;4.60;;;;;;;;;;5053718;28;20301;-73
2024/03/25 06:25:55;;;;;;;28.10;4.87;;;;;;;;;;5055881;28;20196;-73
2024/03/25 06:28:21;;;;;;;24.73;4.70;;;;;;;;;;5055297;28;20189;-74
2024/03/25 06:36:16;;;;;;;23.13;4.23;;;;;;;;;;5054667;28;20225;-73
2024/03/25 06:38:41;;;;;;;21.87;4.73;;;;;;;;;;5058847;28;20615;-74
2024/03/25 06:41:07;;;;;;;20.93;4.30;;;;;;;;;;5056433;28;20189;-74
2024/03/25 06:43:32;;;;;;;25.37;4.70;;;;;;;;;;5053110;28;20687;-73
2024/03/25 06:45:57;;;;;;;25.47;5.10;;;;;;;;;;5057285;28;20193;-74
2024/03/25 06:48:23;;;;;;;36.30;4.50;;;;;;;;;;5054481;28;20185;-73
2024/03/25 06:50:55;;;;;;;28.90;4.73;;;;;;;;;;5053349;28;20251;-74
2024/03/25 06:53:21;;;;;;;27.40;4.57;;;;;;;;;;5055595;28;20189;-74
2024/03/25 06:55:57;;;;;;;23.80;4.67;;;;;;;;;;5038809;28;20252;-75
2024/03/25 06:58:23;;;;;;;25.87;5.23;;;;;;;;;;5055709;28;20192;-74
2024/03/25 07:00:49;;;;;;;28.17;5.27;;;;;;;;;;5062686;28;20180;-74
2024/03/25 07:03:16;;;;;;;29.50;4.90;;;;;;;;;;5056535;28;20261;-73
2024/03/25 07:05:43;;;;;;;27.03;5.13;;;;;;;;;;5055077;28;20594;-73
2024/03/25 07:08:09;;;;;;;29.70;4.83;;;;;;;;;;5052788;28;20585;-73
2024/03/25 07:10:34;;;;;;;26.47;4.90;;;;;;;;;;5056254;28;20227;-74
2024/03/25 07:13:00;;;;;;;23.73;4.63;;;;;;;;;;5057556;28;20177;-74
2024/03/25 07:15:25;;;;;;;22.07;4.50;;;;;;;;;;5055559;28;20615;-73
2024/03/25 07:17:50;;;;;;;27.60;5.57;;;;;;;;;;5058318;28;20423;-73
2024/03/25 07:20:16;;;;;;;21.80;5.10;;;;;;;;;;5059247;28;20238;-73
2024/03/25 07:22:41;;;;;;;28.17;5.20;;;;;;;;;;5064393;28;20327;-73
2024/03/25 07:25:09;;;;;;;37.33;5.40;;;;;;;;;;5054555;28;20208;-73
2024/03/25 07:27:34;;;;;;;23.77;5.20;;;;;;;;;;5052749;28;20884;-73
2024/03/25 07:30:00;;;;;;;24.93;4.80;;;;;;;;;;5053071;28;20284;-73
2024/03/25 07:32:25;;;;;;;25.20;5.27;;;;;;;;;;5050904;28;20178;-73
2024/03/25 07:34:50;;;;;;;20.73;4.87;;;;;;;;;;5055100;28;20664;-73
2024/03/25 07:37:17;;;;;;;20.40;5.00;;;;;;;;;;5056299;28;20338;-73
2024/03/25 07:39:42;;;;;;;30.73;5.00;;;;;;;;;;5055835;28;20195;-73
2024/03/25 07:42:08;;;;;;;21.30;4.53;;;;;;;;;;5054643;28;20727;-73
2024/03/25 07:44:33;;;;;;;29.73;5.03;;;;;;;;;;5050300;28;20303;-73
2024/03/25 07:46:58;;;;;;;29.40;4.73;;;;;;;;;;5031744;28;20663;-72
2024/03/25 07:49:24;;;;;;;21.30;4.33;;;;;;;;;;5055583;28;20274;-72
2024/03/25 07:51:49;;;;;;;26.00;5.63;;;;;;;;;;5058461;28;20525;-72
2024/03/25 07:54:16;;;;;;;26.03;4.33;;;;;;;;;;5058455;28;20197;-72
2024/03/25 07:56:42;;;;;;;24.58;4.07;;;;;;;;;;5057294;28;20189;-72
2024/03/25 07:59:07;;;;;;;29.97;4.63;;;;;;;;;;5053389;28;20260;-72
2024/03/25 08:01:33;;;;;;;19.13;3.63;;;;;;;;;;5057668;28;20506;-72
2024/03/25 08:03:58;;;;;;;20.13;3.75;;;;;;;;;;5057101;28;20258;-72
2024/03/25 08:06:23;;;;;;;20.43;3.93;;;;;;;;;;5047708;28;20185;-72
2024/03/25 08:08:49;;;;;;;29.05;4.65;;;;;;;;;;5056395;28;20288;-73
2024/03/25 08:11:14;;;;;;;21.27;3.80;;;;;;;;;;5052870;28;20196;-73
2024/03/25 08:13:40;;;;;;;27.73;3.58;;;;;;;;;;5054928;28;20184;-72
2024/03/25 08:16:05;;;;;;;22.55;4.10;;;;;;;;;;5053992;28;20339;-72
2024/03/25 08:18:31;;;;;;;25.90;3.65;;;;;;;;;;5051346;28;20930;-72
2024/03/25 08:20:56;;;;;;;23.83;4.18;;;;;;;;;;5051630;28;20196;-72
2024/03/25 08:23:22;;;;;;;21.25;5.40;;;;;;;;;;5052880;28;20197;-72
2024/03/25 08:25:47;;;;;;;19.15;4.00;;;;;;;;;;5052581;28;20212;-72
2024/03/25 08:28:12;;;;;;;19.05;3.72;;;;;;;;;;5053225;28;20185;-72
2024/03/25 08:30:38;;;;;;;18.23;3.60;;;;;;;;;;5055199;28;20219;-72
2024/03/25 08:33:03;;;;;;;15.00;3.60;;;;;;;;;;5052718;28;20238;-72
2024/03/25 08:35:29;;;;;;;21.55;3.30;;;;;;;;;;5051209;28;20300;-72
2024/03/25 08:37:54;;;;;;;16.88;3.47;;;;;;;;;;5052182;28;20394;-72
2024/03/25 08:40:20;;;;;;;23.63;4.38;;;;;;;;;;5051640;28;20284;-72
2024/03/25 08:42:45;;;;;;;28.35;3.97;;;;;;;;;;5050465;28;20210;-72
2024/03/25 08:45:10;;;;;;;16.70;3.03;;;;;;;;;;5055810;28;20192;-71
2024/03/25 08:47:38;;;;;;;23.90;3.40;;;;;;;;;;5052207;28;20200;-72
2024/03/25 08:50:03;;;;;;;17.05;2.72;;;;;;;;;;5053600;28;20200;-72
2024/03/25 08:52:29;;;;;;;18.08;3.20;;;;;;;;;;5051828;28;20189;-73
2024/03/25 08:54:54;;;;;;;18.38;3.10;;;;;;;;;;5055688;28;20309;-72
2024/03/25 08:57:19;;;;;;;18.85;3.35;;;;;;;;;;5055429;28;20269;-72
2024/03/25 08:59:45;;;;;;;14.88;2.70;;;;;;;;;;5054886;28;20187;-72
2024/03/25 09:02:10;;;;;;;16.92;2.55;;;;;;;;;;5053851;28;20212;-73
2024/03/25 09:04:36;;;;;;;16.13;2.83;;;;;;;;;;5051256;28;20186;-73
2024/03/25 09:07:02;;;;;;;16.60;3.15;;;;;;;;;;5047810;28;20199;-74
2024/03/25 09:12:11;;;;;;;11.90;1.90;;;;;;;;;;5053396;28;20554;-72
2024/03/25 09:14:38;;;;;;;18.63;3.50;;;;;;;;;;5054249;28;20272;-72
2024/03/25 09:17:04;;;;;;;17.08;2.33;;;;;;;;;;5054771;28;20196;-73
2024/03/25 09:19:29;;;;;;;19.13;3.42;;;;;;;;;;5051532;28;20208;-73
2024/03/25 09:21:55;;;;;;;20.52;3.72;;;;;;;;;;5053172;28;20659;-73
2024/03/25 09:24:20;;;;;;;21.20;2.80;;;;;;;;;;5052745;28;20189;-73
2024/03/25 09:26:49;;;;;;;13.23;2.38;;;;;;;;;;5054181;28;20243;-73
2024/03/25 09:29:14;;;;;;;8.00;2.28;;;;;;;;;;5036501;28;20224;-73
2024/03/25 09:31:40;;;;;;;10.30;1.98;;;;;;;;;;5052704;28;20280;-72
2024/03/25 09:34:05;;;;;;;8.70;1.60;;;;;;;;;;5054938;28;20261;-72
2024/03/25 09:36:31;;;;;;;9.23;1.40;;;;;;;;;;5047706;28;21405;-72
2024/03/25 09:38:56;;;;;;;10.55;1.77;;;;;;;;;;5054023;28;20588;-73
2024/03/25 09:41:22;;;;;;;10.02;1.70;;;;;;;;;;5055124;28;20679;-73
2024/03/25 09:43:52;;;;;;;11.52;1.60;;;;;;;;;;5054111;28;20213;-73
2024/03/25 09:46:17;;;;;;;7.38;1.40;;;;;;;;;;5058280;28;20276;-73
2024/03/25 09:48:43;;;;;;;7.53;1.20;;;;;;;;;;5056513;28;20279;-73
2024/03/25 09:51:11;;;;;;;7.80;1.15;;;;;;;;;;5057719;28;20177;-73
2024/03/25 09:53:37;;;;;;;7.13;1.42;;;;;;;;;;5058354;28;20189;-72
2024/03/25 09:56:03;;;;;;;11.57;1.52;;;;;;;;;;5057120;28;20188;-72
2024/03/25 09:58:30;;;;;;;6.35;1.27;;;;;;;;;;5056071;28;20202;-73
2024/03/25 10:00:55;;;;;;;7.78;1.50;;;;;;;;;;5056587;28;20186;-73
2024/03/25 10:03:21;;;;;;;9.85;1.38;;;;;;;;;;5057848;28;20209;-73
2024/03/25 10:05:47;;;;;;;10.70;2.03;;;;;;;;;;5057061;28;20682;-73
2024/03/25 10:08:12;;;;;;;10.07;1.80;;;;;;;;;;5057998;28;20196;-73
2024/03/25 10:10:38;;;;;;;12.70;1.70;;;;;;;;;;5058234;28;20189;-73
2024/03/25 10:13:04;;;;;;;14.25;2.38;;;;;;;;;;5056630;28;20193;-73
2024/03/25 10:15:31;;;;;;;6.72;1.42;;;;;;;;;;5057004;28;20189;-72
2024/03/25 10:17:56;;;;;;;6.63;1.60;;;;;;;;;;5057675;28;20373;-72
2024/03/25 10:20:22;;;;;;;7.97;1.40;;;;;;;;;;5057915;28;20260;-72
2024/03/25 10:22:48;;;;;;;10.70;2.53;;;;;;;;;;5058368;28;20221;-73
2024/03/25 10:25:30;;;;;;;10.45;1.77;;;;;;;;;;5059442;28;20204;-73
2024/03/25 10:27:57;;;;;;;6.50;1.60;;;;;;;;;;5056611;28;20201;-73
2024/03/25 10:30:22;;;;;;;7.43;1.42;;;;;;;;;;5054827;28;20245;-73
2024/03/25 10:32:58;;;;;;;9.95;1.60;;;;;;;;;;5063033;28;20174;-73
2024/03/25 10:35:26;;;;;;;11.23;1.83;;;;;;;;;;5048091;28;20207;-73
2024/03/25 10:37:54;;;;;;;10.07;1.77;;;;;;;;;;5055026;28;20225;-73
2024/03/25 10:40:22;;;;;;;12.23;2.20;;;;;;;;;;5055274;28;20192;-72
2024/03/25 10:42:48;;;;;;;9.82;1.75;;;;;;;;;;5064301;28;20593;-73
2024/03/25 10:45:13;;;;;;;10.13;2.92;;;;;;;;;;5056428;28;20197;-72
2024/03/25 10:47:39;;;;;;;6.65;1.27;;;;;;;;;;5057283;28;20688;-73
2024/03/25 10:50:13;;;;;;;12.57;2.15;;;;;;;;;;5058059;28;20190;-72
2024/03/25 10:52:39;;;;;;;11.55;1.98;;;;;;;;;;5050360;28;20182;-71
2024/03/25 10:55:07;;;;;;;13.43;2.30;;;;;;;;;;5057751;28;20199;-72
2024/03/25 10:57:34;;;;;;;8.70;1.90;;;;;;;;;;5058131;28;20242;-73
2024/03/25 11:00:01;;;;;;;9.65;1.98;;;;;;;;;;5054753;28;20186;-73
2024/03/25 11:02:27;;;;;;;11.80;1.45;;;;;;;;;;5056683;28;20205;-73
2024/03/25 11:04:56;;;;;;;9.55;1.65;;;;;;;;;;5034451;28;20272;-72
2024/03/25 11:07:30;;;;;;;9.45;1.83;;;;;;;;;;5057347;28;20193;-72
2024/03/25 11:10:06;;;;;;;10.25;1.63;;;;;;;;;;5056174;28;20191;-72
2024/03/25 11:12:35;;;;;;;5.82;1.55;;;;;;;;;;5059032;28;20172;-73
2024/03/25 11:15:05;;;;;;;7.32;1.42;;;;;;;;;;5056171;28;20201;-73
2024/03/25 11:17:31;;;;;;;7.60;1.40;;;;;;;;;;5055387;28;20185;-72
2024/03/25 11:20:10;;;;;;;6.53;1.13;;;;;;;;;;5057251;28;20255;-72
2024/03/25 11:22:36;;;;;;;8.27;1.52;;;;;;;;;;5057785;28;20622;-73
2024/03/25 11:25:09;;;;;;;10.02;2.00;;;;;;;;;;5055708;28;20184;-72
2024/03/25 11:27:36;;;;;;;6.70;1.38;;;;;;;;;;5056521;28;20189;-72
2024/03/25 11:30:04;;;;;;;6.30;1.35;;;;;;;;;;5055671;28;20639;-72
2024/03/25 11:32:30;;;;;;;7.07;1.55;;;;;;;;;;5056470;28;20706;-72
2024/03/25 11:34:55;;;;;;;5.35;1.38;;;;;;;;;;5052717;28;20188;-73
2024/03/25 11:37:21;;;;;;;6.80;1.20;;;;;;;;;;5057730;28;20243;-72
2024/03/25 11:39:46;;;;;;;7.45;1.45;;;;;;;;;;5054062;28;20601;-72
2024/03/25 11:42:13;;;;;;;11.35;1.63;;;;;;;;;;5058781;28;20296;-72
2024/03/25 11:44:40;;;;;;;5.43;1.10;;;;;;;;;;5051453;28;20184;-72
2024/03/25 11:47:09;;;;;;;5.22;1.15;;;;;;;;;;5060366;28;20730;-72
2024/03/25 11:49:39;;;;;;;4.93;1.17;;;;;;;;;;5057496;28;20522;-73
2024/03/25 11:52:06;;;;;;;7.65;1.60;;;;;;;;;;5059104;28;20189;-72
2024/03/25 11:54:32;;;;;;;7.57;1.52;;;;;;;;;;5059271;28;20185;-72
2024/03/25 11:56:57;;;;;;;8.43;1.33;;;;;;;;;;5053284;28;20517;-73
2024/03/25 11:59:24;;;;;;;4.03;1.20;;;;;;;;;;5053046;28;20591;-72
2024/03/25 12:01:50;;;;;;;6.32;1.52;;;;;;;;;;5032012;28;20205;-72
2024/03/25 12:04:18;;;;;;;13.93;2.17;;;;;;;;;;5055546;28;20223;-72
2024/03/25 12:06:44;;;;;;;6.90;1.50;;;;;;;;;;5052288;28;20268;-72
2024/03/25 12:11:56;;;;;;;7.03;1.38;;;;;;;;;;5053916;28;20685;-72
2024/03/25 12:14:22;;;;;;;9.40;1.80;;;;;;;;;;5056375;28;20184;-73
2024/03/25 12:16:48;;;;;;;6.43;1.52;;;;;;;;;;5056230;28;20223;-72
2024/03/25 12:19:15;;;;;;;7.35;2.05;;;;;;;;;;5055140;28;20204;-72
2024/03/25 12:21:41;;;;;;;9.50;1.50;;;;;;;;;;5054648;28;20617;-73
2024/03/25 12:24:08;;;;;;;6.88;1.50;;;;;;;;;;5053683;28;20192;-72
2024/03/25 12:26:34;;;;;;;6.25;1.67;;;;;;;;;;5052707;28;20616;-73
2024/03/25 12:29:00;;;;;;;9.15;1.92;;;;;;;;;;5052549;28;20193;-72
2024/03/25 12:31:25;;;;;;;10.70;1.35;;;;;;;;;;5049391;28;20193;-72
2024/03/25 12:33:51;;;;;;;5.68;1.17;;;;;;;;;;5061205;28;20264;-72
2024/03/25 12:36:16;;;;;;;6.80;1.13;;;;;;;;;;5055458;28;20236;-72
2024/03/25 12:38:42;;;;;;;5.63;1.05;;;;;;;;;;5053286;28;20235;-72
2024/03/25 12:41:12;;;;;;;6.05;1.10;;;;;;;;;;5052473;28;20687;-71
2024/03/25 12:43:44;;;;;;;6.95;1.27;;;;;;;;;;5060315;28;20190;-71
2024/03/25 12:46:11;;;;;;;7.28;1.40;;;;;;;;;;5062202;28;20799;-71
2024/03/25 12:48:40;;;;;;;5.57;1.20;;;;;;;;;;5054408;28;20200;-71
2024/03/25 12:51:11;;;;;;;8.30;1.45;;;;;;;;;;5061234;28;20188;-72
2024/03/25 12:53:36;;;;;;;6.60;1.48;;;;;;;;;;5054174;28;20200;-71
2024/03/25 12:56:02;;;;;;;8.30;1.35;;;;;;;;;;5055718;28;20289;-72
2024/03/25 12:58:28;;;;;;;5.22;1.30;;;;;;;;;;5055540;28;20184;-72
2024/03/25 13:00:53;;;;;;;7.45;1.17;;;;;;;;;;5052527;28;20229;-72
2024/03/25 13:03:18;;;;;;;5.80;1.00;;;;;;;;;;5053525;28;20259;-72
2024/03/25 13:05:44;;;;;;;5.07;1.00;;;;;;;;;;5051185;28;20201;-71
2024/03/25 13:08:10;;;;;;;7.07;1.27;;;;;;;;;;5052613;28;20181;-71
2024/03/25 13:10:35;;;;;;;5.80;1.33;;;;;;;;;;5052531;28;20184;-73
2024/03/25 13:13:01;;;;;;;6.07;1.10;;;;;;;;;;5049701;28;22052;-72
2024/03/25 13:15:28;;;;;;;5.55;1.70;;;;;;;;;;5052071;28;20203;-72
2024/03/25 13:17:53;;;;;;;5.80;1.30;;;;;;;;;;5054850;28;20184;-72
2024/03/25 13:20:19;;;;;;;7.45;1.42;;;;;;;;;;5053155;28;20221;-72
2024/03/25 13:22:45;;;;;;;5.80;1.50;;;;;;;;;;5053281;28;20659;-72
2024/03/25 13:25:11;;;;;;;7.00;2.00;;;;;;;;;;5051361;28;20346;-72
2024/03/25 13:27:37;;;;;;;10.05;1.52;;;;;;;;;;5046676;28;20195;-72
2024/03/25 13:30:04;;;;;;;7.82;1.27;;;;;;;;;;5053277;28;20550;-72
2024/03/25 13:32:29;;;;;;;7.00;1.50;;;;;;;;;;5051499;28;20177;-72
2024/03/25 13:34:55;;;;;;;8.55;1.70;;;;;;;;;;5049616;28;20200;-71
2024/03/25 13:37:20;;;;;;;6.93;1.40;;;;;;;;;;5048418;28;20703;-71
2024/03/25 13:39:46;;;;;;;7.85;1.80;;;;;;;;;;5033176;28;20197;-71
2024/03/25 13:42:11;;;;;;;5.32;1.35;;;;;;;;;;5053304;28;20213;-72
2024/03/25 13:44:37;;;;;;;10.00;1.80;;;;;;;;;;5051401;28;20189;-72
2024/03/25 13:47:02;;;;;;;8.05;1.55;;;;;;;;;;5055082;28;20229;-71
2024/03/25 13:49:28;;;;;;;5.18;1.45;;;;;;;;;;5045708;28;20188;-71
2024/03/25 13:51:58;;;;;;;5.70;1.35;;;;;;;;;;5050480;28;20201;-72
2024/03/25 13:54:25;;;;;;;4.78;1.33;;;;;;;;;;5049570;28;20663;-72
2024/03/25 13:56:50;;;;;;;6.00;1.20;;;;;;;;;;5049619;28;20602;-72
2024/03/25 13:59:16;;;;;;;7.38;1.50;;;;;;;;;;5050470;28;20272;-72
2024/03/25 14:01:41;;;;;;;6.70;1.23;;;;;;;;;;5048880;28;20225;-72
2024/03/25 14:04:07;;;;;;;8.73;1.33;;;;;;;;;;5052917;28;20186;-72
2024/03/25 14:06:32;;;;;;;4.03;1.27;;;;;;;;;;5048321;28;20266;-72
2024/03/25 14:09:01;;;;;;;7.00;1.50;;;;;;;;;;5045904;28;20182;-72
2024/03/25 14:11:26;;;;;;;10.02;1.70;;;;;;;;;;5051410;28;20264;-73
2024/03/25 14:13:51;;;;;;;7.07;1.17;;;;;;;;;;5050205;28;20203;-73
2024/03/25 14:16:17;;;;;;;4.88;1.05;;;;;;;;;;5049374;28;20189;-73
2024/03/25 14:18:43;;;;;;;7.15;1.63;;;;;;;;;;5052981;28;20236;-72
2024/03/25 14:21:08;;;;;;;8.57;1.20;;;;;;;;;;5053613;28;20191;-71
2024/03/25 14:23:33;;;;;;;5.97;1.08;;;;;;;;;;5049624;28;20295;-71
2024/03/25 14:25:59;;;;;;;5.45;0.90;;;;;;;;;;5032355;28;20196;-71
2024/03/25 14:28:24;;;;;;;5.93;1.23;;;;;;;;;;5054440;28;20213;-72
2024/03/25 14:30:50;;;;;;;6.10;1.17;;;;;;;;;;5055761;28;20192;-72
2024/03/25 14:33:15;;;;;;;4.68;1.10;;;;;;;;;;5041547;28;20264;-72
2024/03/25 14:35:41;;;;;;;7.03;1.48;;;;;;;;;;5053582;28;20189;-72
2024/03/25 14:38:07;;;;;;;5.10;0.90;;;;;;;;;;5035561;28;20242;-72